Deschaillons-Sur-Saint-Laurent, Canada
Current Conditions -  °F | °C
As of 11:00 PM on Tuesday 21 Oct 2014 (Local Time) from CYRQ Reporting Station
Overcast Overcast  
Wind Chill: 37°   Ceiling: 11000
Heat Index: 43°   Visibility: 9mi
Dew Point: 30°   Wind: 12mph
Humidity: 61%   Direction: 40°NE
Pressure: 30.23"   Gusts: 18mph
Location:  46.55°N, 72.12°W
Report Text: CYRQ 220300Z AUTO 04010G16KT 9SM FEW050 OVC110 06/M01 A3023 RMK SLP238
Loading
Personal Weather Stations






























Interactive Weather Map New forecast layout! Learn more

10-Day Weather Forecast

Advertisements
Track Severe Weather on mobile